Time;durP1;ratioP1;P1;durP2;ratioP2;P2;SDS_P1;SDS_P2;PMS_P1;PMS_P2;Temp;Humidity;BMP_temperature;BMP_pressure;BME280_temperature;BME280_humidity;BME280_pressure;Samples;Min_cycle;Max_cycle;Signal;HPM_P1;HPM_P2
2022/12/26 00:01:05;;;;;;;43.60;28.92;;;;;;;8.55;100.00;100889.16;5016295;28;20041;-55
2022/12/26 00:03:30;;;;;;;42.92;29.02;;;;;;;8.54;100.00;100887.50;5020866;28;20509;-56
2022/12/26 00:05:55;;;;;;;56.38;38.08;;;;;;;8.53;100.00;100885.84;5022231;28;20040;-56
2022/12/26 00:08:20;;;;;;;46.92;32.05;;;;;;;8.54;100.00;100884.84;5027833;28;20500;-56
2022/12/26 00:10:46;;;;;;;41.47;27.95;;;;;;;8.54;100.00;100890.94;5026661;28;20048;-56
2022/12/26 00:13:11;;;;;;;49.03;31.10;;;;;;;8.54;100.00;100884.84;5022700;28;20061;-55
2022/12/26 00:15:39;;;;;;;43.55;29.63;;;;;;;8.53;100.00;100888.47;5023539;28;20508;-56
2022/12/26 00:18:04;;;;;;;43.72;29.73;;;;;;;8.55;100.00;100897.94;5023638;28;20026;-56
2022/12/26 00:20:30;;;;;;;45.40;30.27;;;;;;;8.57;100.00;100900.41;5026993;28;20029;-55
2022/12/26 00:22:55;;;;;;;44.78;30.05;;;;;;;8.59;100.00;100909.03;5028188;28;20541;-56
2022/12/26 00:25:20;;;;;;;42.63;28.38;;;;;;;8.66;100.00;100918.03;5029822;28;20516;-55
2022/12/26 00:27:45;;;;;;;44.00;29.13;;;;;;;8.59;100.00;100911.69;5018375;28;20043;-56
2022/12/26 00:30:11;;;;;;;44.42;29.27;;;;;;;8.61;100.00;100909.72;5025350;28;20037;-56
2022/12/26 00:32:36;;;;;;;43.03;28.92;;;;;;;8.61;100.00;100917.66;5014721;28;20025;-56
2022/12/26 00:35:01;;;;;;;43.78;29.88;;;;;;;8.64;100.00;100932.38;5031146;28;20029;-56
2022/12/26 00:37:27;;;;;;;44.03;29.30;;;;;;;8.59;100.00;100920.44;5024842;28;20481;-56
2022/12/26 00:39:52;;;;;;;44.33;29.40;;;;;;;8.59;100.00;100935.47;5018065;28;20034;-56
2022/12/26 00:42:17;;;;;;;43.63;29.08;;;;;;;8.65;100.00;100931.41;5025119;28;20026;-58
2022/12/26 00:44:42;;;;;;;43.05;29.50;;;;;;;8.59;100.00;100922.25;5030598;28;20021;-55
2022/12/26 00:47:08;;;;;;;42.97;29.77;;;;;;;8.57;100.00;100927.69;5015966;28;20033;-57
2022/12/26 00:49:33;;;;;;;42.22;29.02;;;;;;;8.61;100.00;100922.94;5021084;28;20041;-55
2022/12/26 00:51:58;;;;;;;41.33;28.35;;;;;;;8.59;100.00;100931.00;5018396;28;20049;-56
2022/12/26 00:54:23;;;;;;;42.85;28.88;;;;;;;8.60;100.00;100935.31;5026030;28;20113;-56
2022/12/26 00:56:49;;;;;;;41.90;28.58;;;;;;;8.58;100.00;100945.19;5014881;28;20045;-56
2022/12/26 00:59:14;;;;;;;41.60;28.63;;;;;;;8.62;100.00;100940.44;5028135;28;20033;-57
2022/12/26 01:01:39;;;;;;;42.20;28.38;;;;;;;8.60;100.00;100947.72;5025593;28;20088;-55
2022/12/26 01:04:04;;;;;;;44.78;29.38;;;;;;;8.56;100.00;100946.31;5025587;28;20521;-56
2022/12/26 01:06:30;;;;;;;42.30;29.52;;;;;;;8.54;100.00;100916.56;5024863;28;20100;-57
2022/12/26 01:08:55;;;;;;;44.90;30.27;;;;;;;8.56;100.00;100922.53;5015484;28;20025;-56
2022/12/26 01:11:39;;;;;;;41.90;28.85;;;;;;;8.55;100.00;100940.22;5020468;28;20042;-56
2022/12/26 01:14:06;;;;;;;43.00;29.73;;;;;;;8.52;100.00;100956.34;5028298;28;20029;-55
2022/12/26 01:16:31;;;;;;;45.17;30.35;;;;;;;8.51;100.00;100959.94;5020152;28;20500;-55
2022/12/26 01:18:56;;;;;;;45.67;30.52;;;;;;;8.55;100.00;100953.44;5022951;28;20025;-56
2022/12/26 01:21:22;;;;;;;45.80;31.45;;;;;;;8.48;100.00;100966.34;5023705;28;20076;-56
2022/12/26 01:23:47;;;;;;;45.45;30.50;;;;;;;8.49;100.00;100956.63;5019324;28;20022;-55
2022/12/26 01:26:12;;;;;;;46.95;31.65;;;;;;;8.47;100.00;100946.19;5018947;28;20045;-55
2022/12/26 01:28:37;;;;;;;49.28;32.38;;;;;;;8.47;100.00;100938.25;5017707;28;20461;-55
2022/12/26 01:31:04;;;;;;;49.20;33.03;;;;;;;8.45;100.00;100940.19;5021838;28;20053;-56
2022/12/26 01:33:29;;;;;;;48.40;31.85;;;;;;;8.48;100.00;100944.38;5025998;28;20044;-55
2022/12/26 01:35:55;;;;;;;48.03;32.10;;;;;;;8.45;100.00;100944.66;5022283;28;20041;-55
2022/12/26 01:38:20;;;;;;;46.65;30.23;;;;;;;8.45;100.00;100945.50;5019964;28;20121;-57
2022/12/26 01:40:47;;;;;;;45.20;30.40;;;;;;;8.44;100.00;100946.47;5013100;28;20111;-56
2022/12/26 01:43:14;;;;;;;43.70;30.23;;;;;;;8.43;100.00;100939.53;5021946;28;20053;-56
2022/12/26 01:45:43;;;;;;;41.70;28.65;;;;;;;8.42;100.00;100956.38;5017351;28;20049;-55
2022/12/26 01:48:17;;;;;;;40.42;28.02;;;;;;;8.40;100.00;100947.75;5024555;28;20026;-56
2022/12/26 01:50:51;;;;;;;37.38;27.05;;;;;;;8.39;100.00;100948.72;5025210;28;20465;-55
2022/12/26 01:53:21;;;;;;;39.20;26.17;;;;;;;8.36;100.00;100946.38;5015613;28;20034;-56
2022/12/26 01:55:53;;;;;;;34.22;24.83;;;;;;;8.34;100.00;100948.34;5016039;28;20485;-56
2022/12/26 01:58:25;;;;;;;34.17;25.00;;;;;;;8.33;100.00;100946.66;5022910;28;20026;-56
2022/12/26 02:00:51;;;;;;;37.95;25.15;;;;;;;8.34;100.00;100957.06;5019755;28;20507;-56
2022/12/26 02:06:01;;;;;;;31.05;22.45;;;;;;;8.35;100.00;100944.72;5020024;28;20083;-56
2022/12/26 02:08:32;;;;;;;30.80;22.98;;;;;;;8.29;100.00;100942.66;5013754;28;20069;-56
2022/12/26 02:11:16;;;;;;;30.27;21.92;;;;;;;8.32;100.00;100952.91;5019476;28;20496;-54
2022/12/26 02:13:41;;;;;;;30.38;22.55;;;;;;;8.28;100.00;100959.44;5015521;28;20040;-55
2022/12/26 02:16:11;;;;;;;31.52;22.23;;;;;;;8.26;100.00;100956.13;5025730;28;20070;-56
2022/12/26 02:18:36;;;;;;;27.60;20.17;;;;;;;8.29;100.00;100961.13;5027640;28;20452;-55
2022/12/26 02:21:46;;;;;;;28.83;20.60;;;;;;;8.31;100.00;100964.47;5027347;28;20092;-55
2022/12/26 02:24:30;;;;;;;28.58;20.85;;;;;;;8.37;100.00;100968.31;5017916;28;20049;-56
2022/12/26 02:27:13;;;;;;;27.35;20.05;;;;;;;8.35;100.00;100955.28;5017352;28;20026;-56
2022/12/26 02:30:04;;;;;;;26.45;19.75;;;;;;;8.37;100.00;100968.31;5017674;28;20033;-55
2022/12/26 02:32:54;;;;;;;25.60;18.92;;;;;;;8.36;100.00;100949.00;5031099;28;20487;-56
2022/12/26 02:35:32;;;;;;;26.48;19.63;;;;;;;8.32;100.00;100944.97;5011579;28;20028;-55
2022/12/26 02:38:16;;;;;;;26.60;19.17;;;;;;;8.31;100.00;100948.59;5015971;28;20038;-56
2022/12/26 02:41:18;;;;;;;26.58;19.40;;;;;;;8.33;100.00;100962.50;5023335;28;20037;-56
2022/12/26 02:44:00;;;;;;;26.70;19.35;;;;;;;8.29;100.00;100959.31;5022058;28;20121;-55
2022/12/26 02:47:04;;;;;;;26.52;19.63;;;;;;;8.30;100.00;100963.63;5011490;28;20026;-55
2022/12/26 03:13:15;;;;;;;18.80;13.85;;;;;;;8.20;100.00;100961.00;5021081;28;20056;-55
2022/12/26 03:18:50;;;;;;;20.45;14.00;;;;;;;8.19;100.00;100977.84;5019479;28;20094;-55
2022/12/26 03:21:20;;;;;;;19.45;13.55;;;;;;;8.18;100.00;100981.47;5021003;28;20095;-56
2022/12/26 03:23:48;;;;;;;18.95;13.63;;;;;;;8.19;100.00;100971.75;5021827;28;20037;-56
2022/12/26 03:26:40;;;;;;;19.02;13.10;;;;;;;8.22;100.00;100955.59;5021403;28;20060;-56
2022/12/26 03:32:16;;;;;;;20.08;11.93;;;;;;;8.19;100.00;100951.41;5020305;28;20858;-55
2022/12/26 03:34:43;;;;;;;17.08;12.18;;;;;;;8.19;100.00;100954.06;5025705;28;20473;-56
2022/12/26 03:37:31;;;;;;;17.80;12.00;;;;;;;8.21;100.00;100944.16;5023252;28;20476;-57
2022/12/26 04:44:10;;;;;;;11.43;9.23;;;;;;;8.01;100.00;100976.91;5028492;28;20400;-56
2022/12/26 04:46:39;;;;;;;14.38;9.82;;;;;;;8.01;100.00;100966.34;5027779;28;20041;-55
2022/12/26 04:51:51;;;;;;;13.68;9.93;;;;;;;7.97;100.00;100967.59;5020725;28;20515;-56
2022/12/26 04:54:17;;;;;;;13.60;9.80;;;;;;;7.97;100.00;100972.88;5031424;28;20417;-55
2022/12/26 04:56:43;;;;;;;16.13;10.43;;;;;;;8.02;100.00;100954.78;5020545;28;20040;-56
2022/12/26 04:59:09;;;;;;;16.08;10.77;;;;;;;7.97;100.00;100957.03;5024381;28;20033;-56
2022/12/26 05:09:55;;;;;;;15.65;10.55;;;;;;;7.96;100.00;100973.84;5021587;28;20072;-56
2022/12/26 05:12:20;;;;;;;15.52;10.38;;;;;;;7.97;100.00;100983.44;5020552;28;20816;-56
2022/12/26 05:14:46;;;;;;;15.82;9.93;;;;;;;7.98;100.00;100970.09;5024082;28;20072;-56
2022/12/26 05:31:04;;;;;;;14.05;9.50;;;;;;;7.92;100.00;100997.91;5016437;28;20072;-56
2022/12/26 05:36:15;;;;;;;12.98;9.30;;;;;;;7.91;100.00;100975.09;5018948;28;20434;-56
2022/12/26 05:38:40;;;;;;;13.15;9.10;;;;;;;7.86;100.00;100977.34;5022841;28;20057;-55
2022/12/26 05:41:06;;;;;;;13.23;8.73;;;;;;;7.89;100.00;100970.94;5027787;28;20051;-56
2022/12/26 05:43:31;;;;;;;13.70;9.20;;;;;;;7.85;100.00;100970.38;5026853;28;20513;-56
2022/12/26 05:45:57;;;;;;;12.95;9.02;;;;;;;7.83;100.00;100964.41;5021389;28;20731;-56
2022/12/26 05:48:22;;;;;;;13.57;8.98;;;;;;;7.79;100.00;100960.38;5028408;28;20025;-56
2022/12/26 05:50:47;;;;;;;12.90;8.65;;;;;;;7.81;100.00;100955.81;5028474;28;20030;-56
2022/12/26 05:53:13;;;;;;;13.48;8.75;;;;;;;7.80;100.00;100957.59;5029743;28;20017;-56
2022/12/26 05:55:39;;;;;;;13.70;8.68;;;;;;;7.79;100.00;100960.38;5018722;28;20464;-55
2022/12/26 05:58:04;;;;;;;10.93;7.72;;;;;;;7.83;100.00;100956.47;5029873;28;20136;-56
2022/12/26 06:00:30;;;;;;;13.90;8.50;;;;;;;7.81;100.00;100961.09;5023127;28;20036;-56
2022/12/26 06:02:57;;;;;;;12.35;8.05;;;;;;;7.82;100.00;100960.09;5013852;28;20056;-55
2022/12/26 06:05:22;;;;;;;12.93;7.85;;;;;;;7.81;100.00;100972.47;5019258;28;20029;-56
2022/12/26 06:07:47;;;;;;;13.05;7.80;;;;;;;7.83;100.00;100976.78;5025203;28;20510;-56
2022/12/26 06:10:13;;;;;;;10.82;7.50;;;;;;;7.91;100.00;100984.84;5025692;28;20044;-55
2022/12/26 06:12:38;;;;;;;12.95;7.53;;;;;;;7.83;100.00;100982.88;5019898;28;20099;-56
2022/12/26 06:15:04;;;;;;;10.70;7.13;;;;;;;7.97;100.00;100988.72;5027157;28;20029;-56
2022/12/26 06:17:29;;;;;;;13.18;7.45;;;;;;;7.89;100.00;100987.59;5024870;28;20057;-55
2022/12/26 06:19:55;;;;;;;9.50;7.10;;;;;;;7.91;100.00;100990.13;5020987;28;20029;-55
2022/12/26 06:22:20;;;;;;;11.23;7.35;;;;;;;7.95;100.00;100991.50;5021936;28;20037;-56
2022/12/26 06:24:45;;;;;;;11.02;7.80;;;;;;;7.92;100.00;100997.91;5021254;28;20175;-56
2022/12/26 06:27:10;;;;;;;10.57;7.40;;;;;;;7.96;100.00;101002.88;5023586;28;20033;-55
2022/12/26 06:29:36;;;;;;;11.55;7.32;;;;;;;7.91;100.00;101012.06;5027158;28;20052;-55
2022/12/26 06:32:01;;;;;;;10.23;7.00;;;;;;;8.00;100.00;101010.38;5025725;28;20028;-55
2022/12/26 06:34:27;;;;;;;9.23;6.90;;;;;;;7.97;100.00;101015.13;5015121;28;20032;-56
2022/12/26 06:36:54;;;;;;;9.77;7.30;;;;;;;7.94;100.00;101009.16;5022787;28;20520;-56
2022/12/26 06:39:19;;;;;;;8.98;6.93;;;;;;;7.99;100.00;101023.75;5023757;28;20029;-56
2022/12/26 06:41:45;;;;;;;9.23;6.63;;;;;;;7.93;100.00;101031.25;5023745;28;20033;-56
2022/12/26 06:44:10;;;;;;;10.77;6.70;;;;;;;8.03;100.00;101025.13;5026244;28;20049;-55
2022/12/26 06:46:35;;;;;;;9.95;6.88;;;;;;;7.94;100.00;101027.63;5017843;28;20052;-56
2022/12/26 06:49:01;;;;;;;9.98;7.00;;;;;;;7.91;100.00;101019.97;5026344;28;20037;-56
2022/12/26 06:51:27;;;;;;;9.00;6.13;;;;;;;7.95;100.00;101010.00;5019185;28;20041;-56
2022/12/26 06:53:53;;;;;;;8.45;6.20;;;;;;;7.92;100.00;101020.81;5022122;28;20033;-55
2022/12/26 06:56:24;;;;;;;7.80;5.95;;;;;;;7.91;100.00;101009.41;5019891;28;20022;-55
2022/12/26 06:58:54;;;;;;;9.40;6.13;;;;;;;7.88;100.00;101011.50;5024929;28;20083;-56
2022/12/26 07:01:20;;;;;;;9.75;5.90;;;;;;;7.87;100.00;101005.41;5020017;28;20108;-55
2022/12/26 07:03:47;;;;;;;9.27;6.18;;;;;;;7.85;100.00;101012.63;5018628;28;20362;-56
2022/12/26 07:06:21;;;;;;;8.52;6.07;;;;;;;7.82;100.00;101007.63;5020424;28;20037;-58
2022/12/26 07:08:46;;;;;;;8.50;5.75;;;;;;;7.79;100.00;101006.09;5019077;28;20044;-57
2022/12/26 07:11:16;;;;;;;10.30;5.75;;;;;;;7.81;100.00;101013.88;5023819;28;20041;-55
2022/12/26 07:13:42;;;;;;;8.93;6.07;;;;;;;7.80;100.00;101009.59;5020938;28;20044;-56
2022/12/26 07:16:08;;;;;;;7.90;5.43;;;;;;;7.75;100.00;101011.81;5022415;28;20385;-58
2022/12/26 07:18:34;;;;;;;9.13;5.53;;;;;;;7.80;100.00;101025.41;5025127;28;20481;-57
2022/12/26 07:21:03;;;;;;;7.38;5.53;;;;;;;7.74;100.00;101023.34;5021724;28;20040;-56
2022/12/26 07:23:29;;;;;;;10.90;5.60;;;;;;;7.77;100.00;101030.97;5020886;28;20034;-57
2022/12/26 07:25:55;;;;;;;10.20;5.80;;;;;;;7.71;100.00;101020.97;5023926;28;20091;-57
2022/12/26 07:28:20;;;;;;;11.02;6.15;;;;;;;7.70;100.00;101020.13;5023879;28;20108;-55
2022/12/26 07:30:49;;;;;;;9.38;5.68;;;;;;;7.71;100.00;101026.25;5023449;28;20109;-55
2022/12/26 07:33:15;;;;;;;7.53;5.53;;;;;;;7.67;100.00;101026.53;5019028;28;20026;-57
2022/12/26 07:35:40;;;;;;;9.93;5.43;;;;;;;7.73;100.00;101021.66;5022870;28;20033;-55
2022/12/26 07:38:06;;;;;;;8.27;5.47;;;;;;;7.75;100.00;101032.91;5022177;28;20042;-55
2022/12/26 07:40:31;;;;;;;11.65;5.70;;;;;;;7.75;100.00;101033.72;5020267;28;20465;-56
2022/12/26 07:42:56;;;;;;;7.03;5.35;;;;;;;7.73;100.00;101040.13;5018593;28;20562;-55
2022/12/26 07:45:22;;;;;;;9.20;5.30;;;;;;;7.83;100.00;101046.25;5023178;28;20051;-55
2022/12/26 07:47:47;;;;;;;9.65;5.53;;;;;;;7.76;100.00;101039.88;5011178;28;20035;-55
2022/12/26 07:50:16;;;;;;;8.30;5.20;;;;;;;7.87;100.00;101037.09;5015770;28;20028;-56
2022/12/26 07:52:41;;;;;;;8.50;5.60;;;;;;;7.79;100.00;101029.00;5025900;28;20495;-56
2022/12/26 07:55:07;;;;;;;10.95;5.70;;;;;;;7.81;100.00;101037.66;5017327;28;20116;-56
2022/12/26 07:57:32;;;;;;;10.18;5.40;;;;;;;7.82;100.00;101044.59;5022532;28;20156;-57
2022/12/26 07:59:57;;;;;;;8.02;5.40;;;;;;;7.76;100.00;101045.16;5015043;28;20062;-57
2022/12/26 08:02:22;;;;;;;10.77;5.40;;;;;;;7.75;100.00;101048.75;5025028;28;20488;-56
2022/12/26 08:04:48;;;;;;;13.35;5.80;;;;;;;7.74;100.00;101050.56;5025362;28;20030;-57
2022/12/26 08:07:13;;;;;;;9.40;5.18;;;;;;;7.74;100.00;101044.47;5026236;28;20042;-56
2022/12/26 08:09:41;;;;;;;9.52;5.05;;;;;;;7.77;100.00;101041.53;5022476;28;20401;-55
2022/12/26 08:12:07;;;;;;;9.88;5.70;;;;;;;7.79;100.00;101047.50;5027133;28;20037;-56
2022/12/26 08:14:33;;;;;;;8.98;5.53;;;;;;;7.79;100.00;101045.69;5031962;28;20386;-57
2022/12/26 08:16:59;;;;;;;8.52;4.95;;;;;;;7.77;100.00;101046.81;5028686;28;20033;-56
2022/12/26 08:19:24;;;;;;;7.85;5.00;;;;;;;7.78;100.00;101053.75;5015382;28;20646;-56
2022/12/26 08:21:49;;;;;;;8.98;4.93;;;;;;;7.79;100.00;101040.41;5023267;28;20168;-56
2022/12/26 08:24:15;;;;;;;11.90;5.20;;;;;;;7.81;100.00;101042.94;5020031;28;20057;-56
2022/12/26 08:26:40;;;;;;;7.20;5.05;;;;;;;7.84;100.00;101047.09;5018817;28;20469;-55
2022/12/26 08:29:05;;;;;;;9.40;4.90;;;;;;;7.90;100.00;101051.81;5019838;28;20597;-57
2022/12/26 08:31:31;;;;;;;8.57;5.03;;;;;;;7.93;100.00;101044.47;5030559;28;20041;-56
2022/12/26 08:33:56;;;;;;;10.07;5.10;;;;;;;7.98;100.00;101043.22;5021871;28;20050;-57
2022/12/26 08:36:22;;;;;;;11.05;4.88;;;;;;;7.96;100.00;101043.34;5031899;28;20454;-55
2022/12/26 08:38:47;;;;;;;10.75;4.97;;;;;;;8.04;100.00;101054.03;5031724;28;20442;-56
2022/12/26 08:41:13;;;;;;;10.30;4.80;;;;;;;8.10;100.00;101065.88;5025209;28;20045;-58
2022/12/26 08:43:38;;;;;;;6.75;4.65;;;;;;;8.14;100.00;101069.06;5027860;28;20425;-56
2022/12/26 08:46:09;;;;;;;8.52;4.53;;;;;;;8.17;100.00;101072.25;5027436;28;20091;-56
2022/12/26 08:48:36;;;;;;;11.57;4.75;;;;;;;8.19;100.00;101074.75;5027253;28;20034;-56
2022/12/26 08:51:07;;;;;;;8.23;5.10;;;;;;;8.18;100.00;101066.00;5026445;28;20600;-56
2022/12/26 08:53:34;;;;;;;6.82;4.32;;;;;;;8.27;100.00;101076.69;5033345;28;20051;-56
2022/12/26 08:56:00;;;;;;;8.13;4.63;;;;;;;8.30;100.00;101084.34;5022902;28;20028;-56
2022/12/26 08:58:27;;;;;;;9.25;4.25;;;;;;;8.29;100.00;101088.78;5016338;28;20034;-55
2022/12/26 09:00:52;;;;;;;7.57;4.32;;;;;;;8.33;100.00;101090.19;5026194;28;20394;-56
2022/12/26 09:03:18;;;;;;;7.50;4.32;;;;;;;8.39;100.00;101086.13;5020162;28;20025;-56
2022/12/26 09:05:43;;;;;;;7.47;3.90;;;;;;;8.41;100.00;101092.13;5026993;28;20034;-56
2022/12/26 09:08:10;;;;;;;8.30;3.80;;;;;;;8.44;100.00;101091.81;5015511;28;20109;-55
2022/12/26 09:10:35;;;;;;;9.32;3.72;;;;;;;8.47;100.00;101102.13;5025345;28;20030;-55
2022/12/26 09:13:01;;;;;;;9.70;3.65;;;;;;;8.50;100.00;101095.72;5020440;28;20485;-55
2022/12/26 09:15:27;;;;;;;5.60;3.50;;;;;;;8.57;100.00;101093.38;5027011;28;20038;-56
2022/12/26 09:17:52;;;;;;;8.10;3.33;;;;;;;8.59;100.00;101094.88;5023072;28;20034;-57
2022/12/26 09:20:18;;;;;;;5.50;3.10;;;;;;;8.60;100.00;101106.31;5025052;28;20042;-57
2022/12/26 09:22:49;;;;;;;5.38;2.90;;;;;;;8.72;100.00;101105.19;5024144;28;20531;-55
2022/12/26 09:25:14;;;;;;;8.82;2.90;;;;;;;8.69;100.00;101100.16;5021482;28;20390;-56
2022/12/26 09:27:39;;;;;;;9.23;2.70;;;;;;;8.81;100.00;101094.72;5029788;28;20029;-57
2022/12/26 09:30:05;;;;;;;9.95;2.75;;;;;;;8.81;100.00;101119.34;5032382;28;20029;-55
2022/12/26 09:32:33;;;;;;;7.93;2.65;;;;;;;8.81;100.00;101119.34;5013064;28;20026;-55
2022/12/26 09:34:58;;;;;;;7.82;2.85;;;;;;;8.85;100.00;101118.09;5015647;28;20057;-56
2022/12/26 09:37:23;;;;;;;7.00;2.70;;;;;;;8.86;100.00;101125.06;5013206;28;20084;-55
2022/12/26 09:39:49;;;;;;;6.13;2.60;;;;;;;8.87;100.00;101128.50;5013436;28;20030;-56
2022/12/26 09:42:14;;;;;;;9.07;2.70;;;;;;;8.90;100.00;101137.97;5013317;28;20370;-56
2022/12/26 09:44:50;;;;;;;9.18;2.53;;;;;;;8.95;100.00;101133.94;5025614;28;20037;-55
2022/12/26 09:47:29;;;;;;;5.20;2.40;;;;;;;8.94;100.00;101142.81;5018732;28;20029;-56
2022/12/26 09:50:16;;;;;;;7.47;2.50;;;;;;;8.95;100.00;101144.50;5020305;28;20052;-55
2022/12/26 09:52:56;;;;;;;5.38;2.50;;;;;;;8.92;100.00;101152.72;5016014;28;20046;-57
2022/12/26 09:55:47;;;;;;;8.80;3.00;;;;;;;8.93;100.00;101157.03;5017325;28;20088;-56
2022/12/26 09:58:23;;;;;;;6.97;2.65;;;;;;;9.08;100.00;101153.94;5022930;28;20461;-56
2022/12/26 10:00:54;;;;;;;6.30;2.78;;;;;;;8.86;100.00;101158.59;5024098;28;20040;-56
2022/12/26 10:03:21;;;;;;;8.40;2.70;;;;;;;8.88;100.00;101169.84;5029424;28;20517;-59
2022/12/26 10:06:00;;;;;;;6.22;2.83;;;;;;;8.88;100.00;101169.84;5015052;28;20030;-56
2022/12/26 10:08:50;;;;;;;6.53;3.33;;;;;;;8.98;100.00;101169.84;5026505;28;20041;-57
2022/12/26 10:11:40;;;;;;;10.82;2.95;;;;;;;8.94;100.00;101169.28;5020000;28;20053;-57
2022/12/26 10:14:26;;;;;;;7.30;2.90;;;;;;;9.01;100.00;101174.84;5023891;28;20026;-58
2022/12/26 10:16:56;;;;;;;7.03;2.78;;;;;;;9.08;100.00;101168.00;5021601;28;20040;-57
2022/12/26 10:19:42;;;;;;;6.57;2.72;;;;;;;9.06;100.00;101179.69;5020451;28;20033;-57
2022/12/26 10:22:49;;;;;;;7.07;2.80;;;;;;;9.02;100.00;101190.56;5015775;28;20092;-57
2022/12/26 10:25:23;;;;;;;6.40;2.80;;;;;;;8.95;100.00;101181.56;4998740;28;20038;-57
2022/12/26 10:27:50;;;;;;;6.82;2.70;;;;;;;8.98;100.00;101183.88;5024796;28;20104;-58
2022/12/26 10:30:40;;;;;;;10.20;3.33;;;;;;;9.04;100.00;101181.66;5019989;28;20033;-56
2022/12/26 10:33:23;;;;;;;7.72;2.97;;;;;;;9.02;100.00;101189.72;5020640;28;20048;-58
2022/12/26 10:35:48;;;;;;;12.38;3.28;;;;;;;9.34;100.00;101235.34;5017967;28;20484;-57
2022/12/26 10:38:38;;;;;;;7.68;2.40;;;;;;;9.33;99.63;101225.75;5020883;28;20057;-57
2022/12/26 10:41:12;;;;;;;6.10;2.25;;;;;;;8.94;99.85;101240.69;5021418;28;20047;-57
2022/12/26 10:43:43;;;;;;;6.70;2.08;;;;;;;8.63;99.97;101242.66;5022447;28;20046;-58
2022/12/26 10:46:16;;;;;;;9.05;2.35;;;;;;;8.37;100.00;101246.63;5024655;28;20028;-56
2022/12/26 10:48:43;;;;;;;8.80;2.25;;;;;;;8.21;100.00;101252.47;5020595;28;20825;-57
2022/12/26 10:51:10;;;;;;;5.80;2.17;;;;;;;8.23;100.00;101257.63;5019249;28;20054;-56
2022/12/26 10:53:41;;;;;;;8.90;1.92;;;;;;;8.24;100.00;101261.91;5020189;28;20043;-57
2022/12/26 10:56:07;;;;;;;8.38;2.35;;;;;;;8.05;100.00;101258.25;5016118;28;20433;-57
2022/12/26 10:58:35;;;;;;;8.98;2.47;;;;;;;7.98;100.00;101263.22;5018227;28;20034;-57
2022/12/26 11:01:25;;;;;;;8.73;2.40;;;;;;;8.20;100.00;101270.09;5017414;28;20026;-57
2022/12/26 11:03:59;;;;;;;10.60;2.80;;;;;;;7.99;100.00;101285.22;5017290;28;20044;-56
2022/12/26 11:06:30;;;;;;;10.48;2.50;;;;;;;8.10;99.47;101281.63;5023527;28;20033;-58
2022/12/26 11:08:56;;;;;;;8.30;2.20;;;;;;;7.95;98.75;101292.56;5016285;28;20034;-56
2022/12/26 11:11:44;;;;;;;11.30;2.60;;;;;;;8.00;98.55;101281.59;5015215;28;20522;-57
2022/12/26 11:14:25;;;;;;;12.13;2.78;;;;;;;7.90;99.01;101290.28;5023428;28;20101;-57
2022/12/26 11:16:51;;;;;;;12.30;2.65;;;;;;;7.75;97.51;101296.91;5022836;28;20037;-56
2022/12/26 11:19:31;;;;;;;13.93;3.22;;;;;;;7.83;98.43;101299.72;5021729;28;20630;-56
2022/12/26 11:22:28;;;;;;;8.75;2.90;;;;;;;7.84;98.71;101305.84;5016538;28;20045;-57
2022/12/26 11:25:09;;;;;;;13.43;3.30;;;;;;;7.82;98.37;101313.91;5020211;28;20530;-57
2022/12/26 11:27:35;;;;;;;14.32;3.10;;;;;;;7.64;96.45;101316.28;5024416;28;20037;-57
2022/12/26 11:30:17;;;;;;;14.70;3.63;;;;;;;7.64;98.02;101319.78;5023150;28;20034;-57
2022/12/26 11:32:46;;;;;;;12.95;3.00;;;;;;;7.59;96.33;101308.78;5019035;28;20045;-56
2022/12/26 11:35:24;;;;;;;10.20;3.22;;;;;;;7.59;97.31;101314.06;5019620;28;20033;-58
2022/12/26 11:37:56;;;;;;;12.27;3.10;;;;;;;7.53;94.89;101317.22;5022898;28;20116;-56
2022/12/26 11:40:30;;;;;;;11.13;3.28;;;;;;;7.52;95.53;101312.91;5019522;28;20105;-57
2022/12/26 11:42:59;;;;;;;12.75;3.30;;;;;;;7.43;94.59;101326.84;5020902;28;20052;-56
2022/12/26 11:45:27;;;;;;;14.38;3.22;;;;;;;7.37;94.46;101321.16;5023220;28;20470;-57
2022/12/26 11:47:55;;;;;;;11.02;3.42;;;;;;;7.31;96.11;101321.66;5022267;28;20037;-58
2022/12/26 11:50:25;;;;;;;11.50;2.92;;;;;;;7.33;95.85;101327.66;5020819;28;20029;-56
2022/12/26 11:53:05;;;;;;;14.35;3.20;;;;;;;7.45;95.30;101332.88;5022015;28;20029;-56
2022/12/26 11:55:37;;;;;;;14.70;3.00;;;;;;;7.32;94.59;101331.25;5023650;28;21718;-56
2022/12/26 11:58:09;;;;;;;8.65;3.17;;;;;;;7.36;94.56;101332.66;5022102;28;20034;-57
2022/12/26 12:00:36;;;;;;;11.63;2.90;;;;;;;7.33;94.07;101340.84;5021855;28;20033;-57
2022/12/26 12:03:08;;;;;;;10.88;2.70;;;;;;;7.36;93.63;101337.91;5020051;28;20033;-57
2022/12/26 12:05:53;;;;;;;13.20;2.72;;;;;;;7.51;93.44;101349.00;5024457;28;20041;-58
2022/12/26 12:08:45;;;;;;;7.93;2.22;;;;;;;7.57;92.54;101360.88;5020695;28;22110;-57
2022/12/26 12:11:40;;;;;;;9.45;2.80;;;;;;;7.28;94.54;101353.56;5022337;28;20047;-57
2022/12/26 12:14:05;;;;;;;11.05;3.00;;;;;;;7.34;93.07;101357.47;5024477;28;20077;-57
2022/12/26 12:16:53;;;;;;;11.57;2.60;;;;;;;7.34;93.24;101363.59;5021169;28;20051;-56
2022/12/26 12:19:38;;;;;;;13.40;3.33;;;;;;;7.36;93.42;101364.31;5020321;28;20114;-57
2022/12/26 12:22:32;;;;;;;12.40;2.97;;;;;;;7.35;94.41;101362.63;5018606;28;20160;-58
2022/12/26 12:25:16;;;;;;;12.48;3.13;;;;;;;7.27;94.64;101359.81;5015761;28;20042;-57
2022/12/26 12:28:04;;;;;;;12.68;2.95;;;;;;;7.26;95.88;101360.78;5018793;28;20041;-57
2022/12/26 12:30:42;;;;;;;11.38;2.70;;;;;;;7.31;94.58;101353.31;5020285;28;20025;-57
2022/12/26 12:33:31;;;;;;;14.00;3.10;;;;;;;7.38;93.16;101366.81;5023356;28;20041;-57
2022/12/26 12:35:56;;;;;;;7.35;2.30;;;;;;;7.22;91.65;101370.75;5025277;28;20586;-58
2022/12/26 12:38:29;;;;;;;7.50;2.20;;;;;;;7.28;89.50;101369.41;5018877;28;20026;-56
2022/12/26 12:41:15;;;;;;;6.93;2.10;;;;;;;7.16;88.15;101373.03;5021170;28;20629;-57
2022/12/26 12:43:52;;;;;;;5.70;1.90;;;;;;;7.12;87.37;101383.84;5023755;28;20042;-57
2022/12/26 12:46:32;;;;;;;8.10;2.00;;;;;;;6.95;86.51;101384.34;5026108;28;20025;-56
2022/12/26 12:49:34;;;;;;;8.88;2.13;;;;;;;6.95;87.44;101384.34;5030408;28;20022;-57
2022/12/26 12:52:15;;;;;;;9.88;2.30;;;;;;;6.86;87.17;101391.25;5023240;28;20034;-56
2022/12/26 12:54:40;;;;;;;9.63;2.38;;;;;;;6.71;87.99;101393.31;5028805;28;20037;-57
2022/12/26 12:57:32;;;;;;;9.38;2.08;;;;;;;6.79;88.61;101403.22;5028566;28;20036;-57
2022/12/26 13:00:18;;;;;;;7.00;1.98;;;;;;;6.95;85.82;101406.31;5026986;28;20113;-57
2022/12/26 13:03:14;;;;;;;8.57;2.10;;;;;;;6.82;86.23;101401.16;5017332;28;20026;-56
2022/12/26 13:06:02;;;;;;;9.55;2.13;;;;;;;6.66;85.46;101400.75;5023707;28;20036;-57
2022/12/26 13:09:15;;;;;;;3.63;1.80;;;;;;;6.92;85.47;101401.28;5018993;28;20025;-56
2022/12/26 13:11:47;;;;;;;8.93;2.15;;;;;;;6.64;85.90;101403.50;5020481;28;20501;-59
2022/12/26 13:14:23;;;;;;;7.03;2.10;;;;;;;6.62;86.39;101394.03;5025049;28;20041;-58
2022/12/26 13:17:06;;;;;;;5.05;2.10;;;;;;;6.57;86.95;101397.84;5026694;28;20038;-56
2022/12/26 13:19:43;;;;;;;6.85;2.30;;;;;;;6.59;86.49;101395.94;5022502;28;20037;-57
2022/12/26 13:25:33;;;;;;;8.02;2.13;;;;;;;6.52;86.40;101394.75;5028134;28;20040;-58
2022/12/26 13:28:08;;;;;;;9.90;2.30;;;;;;;6.61;85.13;101400.25;5025020;28;20034;-58
2022/12/26 13:30:34;;;;;;;9.25;2.30;;;;;;;6.50;88.01;101409.84;5031052;28;20028;-56
2022/12/26 13:33:00;;;;;;;5.05;1.90;;;;;;;6.67;85.61;101420.84;5024404;28;20040;-56
2022/12/26 13:35:48;;;;;;;5.50;2.10;;;;;;;6.88;84.15;101420.94;5022799;28;20638;-57
2022/12/26 13:38:14;;;;;;;8.63;2.10;;;;;;;6.47;86.52;101418.00;5022041;28;20046;-57
2022/12/26 13:40:50;;;;;;;5.43;1.95;;;;;;;6.57;86.37;101408.41;5027432;28;20107;-56
2022/12/26 13:46:31;;;;;;;3.65;1.70;;;;;;;6.90;82.15;101428.75;5029628;28;20635;-57
2022/12/26 13:48:58;;;;;;;2.58;1.65;;;;;;;6.53;82.37;101440.38;5019848;28;20048;-56